createdAt,value
2018-08-03T00:02:18.496Z,21.85
2018-08-03T00:04:47.748Z,21.81
2018-08-03T00:07:17.399Z,21.71
2018-08-03T00:09:46.547Z,21.56
2018-08-03T00:12:15.405Z,21.42
2018-08-03T00:14:44.627Z,21.32
2018-08-03T00:17:13.689Z,21.25
2018-08-03T00:19:43.053Z,21.24
2018-08-03T00:22:12.083Z,21.23
2018-08-03T00:24:41.228Z,21.20
2018-08-03T00:27:10.441Z,21.23
2018-08-03T00:29:39.659Z,21.23
2018-08-03T00:32:08.713Z,21.16
2018-08-03T00:34:39.972Z,21.17
2018-08-03T00:37:09.170Z,21.12
2018-08-03T00:39:38.242Z,21.14
2018-08-03T00:42:07.292Z,21.11
2018-08-03T00:44:36.610Z,21.13
2018-08-03T00:47:06.465Z,21.05
2018-08-03T00:49:35.498Z,21.02
2018-08-03T00:52:04.769Z,20.93
2018-08-03T00:54:33.825Z,20.88
2018-08-03T00:57:02.604Z,20.78
2018-08-03T00:59:31.628Z,20.66
2018-08-03T01:02:00.513Z,20.51
2018-08-03T01:04:29.320Z,20.41
2018-08-03T01:06:58.320Z,20.40
2018-08-03T01:09:27.206Z,20.43
2018-08-03T01:11:56.030Z,20.41
2018-08-03T01:14:25.175Z,20.42
2018-08-03T01:16:54.059Z,20.40
2018-08-03T01:19:22.945Z,20.30
2018-08-03T01:21:52.853Z,20.29
2018-08-03T01:24:21.884Z,20.27
2018-08-03T01:26:50.720Z,20.24
2018-08-03T01:29:19.592Z,20.19
2018-08-03T01:31:48.512Z,20.09
2018-08-03T01:34:17.445Z,20.00
2018-08-03T01:36:46.213Z,20.04
2018-08-03T01:39:15.138Z,19.99
2018-08-03T01:41:44.818Z,19.92
2018-08-03T01:44:13.724Z,19.75
2018-08-03T01:46:42.651Z,19.54
2018-08-03T01:49:11.761Z,19.30
2018-08-03T01:51:40.682Z,19.23
2018-08-03T01:54:09.647Z,19.28
2018-08-03T01:56:38.471Z,19.36
2018-08-03T01:59:08.144Z,19.47
2018-08-03T02:01:37.368Z,19.50
2018-08-03T02:04:06.646Z,19.46
2018-08-03T02:06:35.576Z,19.45
2018-08-03T02:09:06.869Z,19.52
2018-08-03T02:11:35.990Z,19.61
2018-08-03T02:14:05.769Z,19.72
2018-08-03T02:16:34.661Z,19.72
2018-08-03T02:19:03.739Z,19.55
2018-08-03T02:21:32.594Z,19.45
2018-08-03T02:24:01.536Z,19.51
2018-08-03T02:26:30.819Z,19.66
2018-08-03T02:28:59.754Z,19.70
2018-08-03T02:31:29.015Z,19.67
2018-08-03T02:33:57.898Z,19.52
2018-08-03T02:36:26.732Z,19.30
2018-08-03T02:38:55.551Z,19.12
2018-08-03T02:41:24.470Z,19.02
2018-08-03T02:43:53.490Z,18.88
2018-08-03T02:46:22.439Z,18.65
2018-08-03T02:48:51.373Z,18.49
2018-08-03T02:51:20.349Z,18.37
2018-08-03T02:53:49.193Z,18.46
2018-08-03T02:56:18.392Z,18.51
2018-08-03T02:58:47.195Z,18.33
2018-08-03T03:01:16.180Z,18.16
2018-08-03T03:03:44.980Z,18.11
2018-08-03T03:06:13.830Z,18.33
2018-08-03T03:08:42.952Z,18.63
2018-08-03T03:11:12.006Z,18.89
2018-08-03T03:13:40.977Z,19.09
2018-08-03T03:16:10.215Z,19.23
2018-08-03T03:18:39.239Z,19.29
2018-08-03T03:21:08.294Z,19.36
2018-08-03T03:23:37.275Z,19.37
2018-08-03T03:26:06.285Z,19.38
2018-08-03T03:28:35.189Z,19.37
2018-08-03T03:31:04.167Z,19.32
2018-08-03T03:33:33.033Z,19.26
2018-08-03T03:36:02.157Z,19.21
2018-08-03T03:38:31.056Z,19.12
2018-08-03T03:41:00.494Z,18.99
2018-08-03T03:43:29.477Z,18.82
2018-08-03T03:45:58.419Z,18.73
2018-08-03T03:48:27.342Z,18.51
2018-08-03T03:50:56.360Z,18.26
2018-08-03T03:53:25.406Z,18.06
2018-08-03T03:55:54.392Z,17.91
2018-08-03T03:58:23.461Z,17.93
2018-08-03T04:00:52.469Z,17.99
2018-08-03T04:03:21.457Z,18.11
2018-08-03T04:05:50.442Z,18.32
2018-08-03T04:08:19.966Z,18.53
2018-08-03T04:10:48.924Z,18.59
2018-08-03T04:13:17.910Z,18.55
2018-08-03T04:15:46.910Z,18.56
2018-08-03T04:18:21.127Z,18.61
2018-08-03T04:20:51.264Z,18.68
2018-08-03T04:23:20.279Z,18.76
2018-08-03T04:25:49.268Z,18.80
2018-08-03T04:28:18.265Z,18.88
2018-08-03T04:30:47.264Z,18.94
2018-08-03T04:33:16.287Z,18.95
2018-08-03T04:35:45.279Z,18.85
2018-08-03T04:38:14.392Z,18.72
2018-08-03T04:40:43.441Z,18.72
2018-08-03T04:43:12.445Z,18.84
2018-08-03T04:45:41.332Z,18.97
2018-08-03T04:48:10.233Z,19.08
2018-08-03T04:50:39.222Z,19.15
2018-08-03T04:53:08.162Z,19.19
2018-08-03T04:55:37.200Z,19.20
2018-08-03T04:58:06.046Z,19.22
2018-08-03T05:00:34.985Z,19.31
2018-08-03T05:03:03.927Z,19.46
2018-08-03T05:05:32.956Z,19.63
2018-08-03T05:08:01.966Z,19.77
2018-08-03T05:10:30.854Z,19.88
2018-08-03T05:12:59.806Z,19.96
2018-08-03T05:15:28.748Z,20.05
2018-08-03T05:17:57.623Z,20.12
2018-08-03T05:20:26.626Z,20.19
2018-08-03T05:22:55.645Z,20.24
2018-08-03T05:25:24.775Z,20.36
2018-08-03T05:27:53.854Z,20.46
2018-08-03T05:30:22.846Z,20.59
2018-08-03T05:32:51.883Z,20.73
2018-08-03T05:35:20.787Z,20.77
2018-08-03T05:37:49.805Z,20.82
2018-08-03T05:40:18.752Z,20.92
2018-08-03T05:42:47.778Z,21.02
2018-08-03T05:45:16.899Z,21.10
2018-08-03T05:47:45.890Z,21.17
2018-08-03T05:50:14.919Z,21.28
2018-08-03T05:52:44.037Z,21.40
2018-08-03T05:55:13.008Z,21.55
2018-08-03T05:57:41.996Z,21.67
2018-08-03T06:00:10.976Z,21.79
2018-08-03T06:02:39.968Z,21.94
2018-08-03T06:05:09.405Z,22.03
2018-08-03T06:07:40.796Z,22.16
2018-08-03T06:10:09.989Z,22.30
2018-08-03T06:12:39.021Z,22.49
2018-08-03T06:15:09.525Z,22.58
2018-08-03T06:17:38.824Z,22.70
2018-08-03T06:20:09.199Z,22.82
2018-08-03T06:22:38.179Z,22.93
2018-08-03T06:25:08.010Z,23.06
2018-08-03T06:27:37.035Z,23.19
2018-08-03T06:30:07.184Z,23.31
2018-08-03T06:32:36.561Z,23.38
2018-08-03T06:35:05.498Z,23.44
2018-08-03T06:37:34.469Z,23.53
2018-08-03T06:40:03.420Z,23.61
2018-08-03T06:42:32.471Z,23.70
2018-08-03T06:45:01.433Z,23.76
2018-08-03T06:47:30.498Z,23.86
2018-08-03T06:49:59.338Z,23.96
2018-08-03T06:52:28.351Z,24.05
2018-08-03T06:54:57.344Z,24.13
2018-08-03T06:57:26.368Z,24.18
2018-08-03T06:59:55.274Z,24.28
2018-08-03T07:02:24.337Z,24.40
2018-08-03T07:04:53.349Z,24.48
2018-08-03T07:07:22.405Z,24.55
2018-08-03T07:09:51.415Z,24.59
2018-08-03T07:12:20.408Z,24.68
2018-08-03T07:14:49.569Z,24.76
2018-08-03T07:17:18.539Z,24.86
2018-08-03T07:19:47.449Z,24.96
2018-08-03T07:22:16.476Z,25.04
2018-08-03T07:24:45.404Z,25.17
2018-08-03T07:27:14.527Z,25.23
2018-08-03T07:29:43.582Z,25.28
2018-08-03T07:32:12.510Z,25.38
2018-08-03T07:34:41.463Z,25.50
2018-08-03T07:37:10.459Z,25.64
2018-08-03T07:39:39.487Z,25.71
2018-08-03T07:42:08.490Z,25.74
2018-08-03T07:44:37.498Z,25.81
2018-08-03T07:47:06.483Z,26.01
2018-08-03T07:49:35.398Z,26.17
2018-08-03T07:52:04.422Z,26.26
2018-08-03T07:54:33.308Z,26.34
2018-08-03T07:57:02.347Z,26.40
2018-08-03T07:59:31.199Z,26.49
2018-08-03T08:02:00.329Z,26.56
2018-08-03T08:04:29.309Z,26.68
2018-08-03T08:07:01.884Z,26.82
2018-08-03T08:09:30.823Z,26.96
2018-08-03T08:11:59.777Z,27.01
2018-08-03T08:14:28.749Z,27.04
2018-08-03T08:16:57.851Z,27.15
2018-08-03T08:19:26.893Z,27.20
2018-08-03T08:21:55.854Z,27.26
2018-08-03T08:24:24.949Z,27.28
2018-08-03T08:26:53.842Z,27.26
2018-08-03T08:29:23.031Z,27.29
2018-08-03T08:31:52.012Z,27.45
2018-08-03T08:34:20.985Z,27.63
2018-08-03T08:36:50.072Z,27.89
2018-08-03T08:39:19.120Z,27.93
2018-08-03T08:41:53.164Z,28.04
2018-08-03T08:44:24.585Z,28.19
2018-08-03T08:46:53.825Z,28.26
2018-08-03T08:49:23.609Z,28.43
2018-08-03T08:51:52.772Z,28.48
2018-08-03T08:54:21.865Z,28.61
2018-08-03T08:56:51.303Z,28.65
2018-08-03T08:59:20.742Z,28.68
2018-08-03T09:01:49.759Z,28.76
2018-08-03T09:04:19.452Z,28.86
2018-08-03T09:06:48.828Z,28.90
2018-08-03T09:09:18.601Z,28.97
2018-08-03T09:11:47.770Z,29.10
2018-08-03T09:14:18.631Z,29.17
2018-08-03T09:16:48.033Z,29.23
2018-08-03T09:19:23.085Z,29.38
2018-08-03T09:22:02.097Z,29.48
2018-08-03T09:24:32.418Z,29.56
2018-08-03T09:27:01.521Z,29.63
2018-08-03T09:29:30.733Z,29.83
2018-08-03T09:32:01.149Z,29.82
2018-08-03T09:34:30.834Z,29.87
2018-08-03T09:39:42.555Z,30.12
2018-08-03T09:42:12.584Z,30.29
2018-08-03T09:44:41.954Z,30.42
2018-08-03T09:47:11.876Z,30.49
2018-08-03T09:49:40.831Z,30.53
2018-08-03T09:52:10.099Z,30.52
2018-08-03T09:54:42.065Z,30.55
2018-08-03T09:57:11.404Z,30.66
2018-08-03T09:59:42.156Z,30.83
2018-08-03T10:02:11.222Z,31.08
2018-08-03T10:04:41.072Z,31.17
2018-08-03T10:07:09.957Z,31.28
2018-08-03T10:09:38.952Z,31.27
2018-08-03T10:12:08.191Z,31.25
2018-08-03T10:14:42.509Z,31.14
2018-08-03T10:17:12.709Z,31.13
2018-08-03T10:19:43.114Z,31.32
2018-08-03T10:22:12.837Z,31.54
2018-08-03T10:24:42.004Z,31.70
2018-08-03T10:27:11.321Z,31.66
2018-08-03T10:29:40.853Z,31.67
2018-08-03T10:32:10.117Z,31.77
2018-08-03T10:34:43.270Z,32.13
2018-08-03T10:37:12.204Z,32.35
2018-08-03T10:39:41.309Z,32.50
2018-08-03T10:42:13.696Z,32.53
2018-08-03T10:45:13.221Z,32.56
2018-08-03T10:47:42.457Z,32.68
2018-08-03T10:50:11.480Z,32.82
2018-08-03T10:52:40.543Z,32.81
2018-08-03T10:55:22.034Z,32.72
2018-08-03T10:57:51.070Z,32.86
2018-08-03T11:00:25.787Z,32.99
2018-08-03T11:02:56.529Z,33.03
2018-08-03T11:05:33.194Z,32.96
2018-08-03T11:08:02.820Z,32.86
2018-08-03T11:10:32.209Z,33.00
2018-08-03T11:13:01.622Z,33.24
2018-08-03T11:15:31.210Z,33.23
2018-08-03T11:18:00.293Z,33.15
2018-08-03T11:20:29.578Z,33.30
2018-08-03T11:22:58.700Z,33.45
2018-08-03T11:25:28.080Z,33.57
2018-08-03T11:27:57.253Z,33.99
2018-08-03T11:30:26.466Z,34.17
2018-08-03T11:32:55.543Z,34.12
2018-08-03T11:35:37.064Z,34.29
2018-08-03T11:38:06.306Z,34.79
2018-08-03T11:40:35.448Z,35.23
2018-08-03T11:43:04.392Z,35.48
2018-08-03T11:45:37.311Z,35.79
2018-08-03T11:48:06.753Z,35.99
2018-08-03T11:50:35.873Z,36.33
2018-08-03T11:53:04.993Z,36.55
2018-08-03T11:55:42.478Z,36.39
2018-08-03T11:58:11.817Z,35.99
2018-08-03T12:00:40.930Z,35.69
2018-08-03T12:03:09.845Z,35.55
2018-08-03T12:05:47.427Z,35.25
2018-08-03T12:08:16.452Z,34.83
2018-08-03T12:10:45.541Z,34.63
2018-08-03T12:13:15.193Z,34.70
2018-08-03T12:15:47.801Z,35.17
2018-08-03T12:18:16.963Z,35.72
2018-08-03T12:20:47.300Z,35.98
2018-08-03T12:23:16.628Z,36.34
2018-08-03T12:25:48.042Z,36.50
2018-08-03T12:28:17.173Z,36.01
2018-08-03T12:30:47.208Z,35.85
2018-08-03T12:33:16.119Z,36.02
2018-08-03T12:35:45.445Z,36.42
2018-08-03T12:38:14.754Z,36.66
2018-08-03T12:40:43.933Z,36.77
2018-08-03T12:43:13.513Z,36.78
2018-08-03T12:45:46.606Z,36.76
2018-08-03T12:48:15.601Z,36.88
2018-08-03T12:50:44.772Z,37.24
2018-08-03T12:53:13.750Z,37.61
2018-08-03T12:56:00.064Z,39.62
2018-08-03T12:58:29.077Z,42.75
2018-08-03T13:00:58.213Z,44.67
2018-08-03T13:03:31.677Z,46.35
2018-08-03T13:06:21.717Z,47.51
2018-08-03T13:08:50.838Z,48.50
2018-08-03T13:11:19.994Z,49.28
2018-08-03T13:13:49.045Z,50.07
2018-08-03T13:16:18.228Z,50.97
2018-08-03T13:18:47.249Z,50.41
2018-08-03T13:21:27.437Z,49.46
2018-08-03T13:23:59.297Z,49.10
2018-08-03T13:26:36.909Z,48.43
2018-08-03T13:29:06.337Z,48.81
2018-08-03T13:31:36.650Z,49.01
2018-08-03T13:34:05.850Z,46.65
2018-08-03T13:37:04.843Z,44.20
2018-08-03T13:39:34.156Z,42.33
2018-08-03T13:42:03.442Z,44.31
2018-08-03T13:44:32.799Z,46.74
2018-08-03T13:47:02.897Z,48.35
2018-08-03T13:49:32.674Z,49.57
2018-08-03T13:52:02.746Z,49.35
2018-08-03T13:54:31.745Z,46.44
2018-08-03T13:57:02.105Z,43.95
2018-08-03T13:59:31.948Z,41.89
2018-08-03T14:02:15.838Z,40.39
2018-08-03T14:04:44.909Z,39.39
2018-08-03T14:07:17.115Z,38.90
2018-08-03T14:09:46.115Z,39.46
2018-08-03T14:12:15.241Z,42.57
2018-08-03T14:14:46.102Z,46.05
2018-08-03T14:17:19.271Z,48.62
2018-08-03T14:19:56.039Z,50.39
2018-08-03T14:22:25.440Z,51.44
2018-08-03T14:24:55.515Z,52.42
2018-08-03T14:27:43.329Z,52.87
2018-08-03T14:30:12.521Z,51.10
2018-08-03T14:32:42.173Z,49.22
2018-08-03T14:35:11.545Z,46.14
2018-08-03T14:37:54.810Z,43.10
2018-08-03T14:40:24.063Z,40.89
2018-08-03T14:42:53.174Z,39.81
2018-08-03T14:45:22.280Z,39.26
2018-08-03T14:47:51.180Z,40.86
2018-08-03T14:50:20.241Z,43.10
2018-08-03T14:52:49.530Z,45.83
2018-08-03T14:55:18.622Z,48.13
2018-08-03T14:57:53.018Z,49.70
2018-08-03T15:00:22.316Z,50.07
2018-08-03T15:02:57.626Z,47.91
2018-08-03T15:05:27.309Z,45.51
2018-08-03T15:08:00.213Z,43.61
2018-08-03T15:10:29.918Z,43.63
2018-08-03T15:12:59.594Z,45.75
2018-08-03T15:15:28.926Z,47.72
2018-08-03T15:18:00.060Z,49.15
2018-08-03T15:20:30.655Z,50.19
2018-08-03T15:23:00.102Z,50.95
2018-08-03T15:25:29.650Z,50.72
2018-08-03T15:28:02.615Z,48.18
2018-08-03T15:30:31.812Z,45.53
2018-08-03T15:33:02.644Z,44.01
2018-08-03T15:35:33.084Z,44.73
2018-08-03T15:38:04.829Z,46.70
2018-08-03T15:40:34.224Z,48.10
2018-08-03T15:43:06.908Z,48.64
2018-08-03T15:45:37.550Z,49.01
2018-08-03T15:48:35.836Z,48.46
2018-08-03T15:51:06.964Z,48.95
2018-08-03T15:53:51.440Z,50.09
2018-08-03T15:56:25.617Z,50.67
2018-08-03T15:58:55.865Z,50.94
2018-08-03T16:01:26.771Z,50.90
2018-08-03T16:03:56.410Z,51.01
2018-08-03T16:06:29.078Z,51.13
2018-08-03T16:09:12.339Z,50.85
2018-08-03T16:11:47.068Z,50.50
2018-08-03T16:14:17.995Z,49.90
2018-08-03T16:19:32.992Z,48.97
2018-08-03T16:24:45.073Z,48.10
2018-08-03T16:27:28.387Z,47.47
2018-08-03T16:29:57.676Z,46.63
2018-08-03T16:32:27.106Z,46.55
2018-08-03T16:34:56.787Z,45.62
2018-08-03T16:37:30.528Z,44.87
2018-08-03T16:39:59.770Z,44.27
2018-08-03T16:42:30.228Z,43.80
2018-08-03T16:44:59.819Z,43.16
2018-08-03T16:47:32.177Z,42.54
2018-08-03T16:50:01.897Z,42.59
2018-08-03T16:52:32.677Z,42.41
2018-08-03T16:55:02.420Z,42.86
2018-08-03T16:57:53.351Z,42.85
2018-08-03T17:00:22.305Z,42.27
2018-08-03T17:02:51.189Z,42.06
2018-08-03T17:05:20.077Z,42.30
2018-08-03T17:07:48.990Z,42.12
2018-08-03T17:10:18.008Z,41.31
2018-08-03T17:12:47.030Z,41.08
2018-08-03T17:15:16.049Z,40.82
2018-08-03T17:17:45.078Z,40.29
2018-08-03T17:20:14.056Z,40.28
2018-08-03T17:22:43.111Z,40.23
2018-08-03T17:25:12.154Z,40.15
2018-08-03T17:27:41.282Z,40.41
2018-08-03T17:30:10.236Z,40.31
2018-08-03T17:32:39.163Z,40.22
2018-08-03T17:35:08.113Z,39.82
2018-08-03T17:37:37.437Z,39.56
2018-08-03T17:40:06.755Z,39.12
2018-08-03T17:42:35.809Z,38.56
2018-08-03T17:45:05.133Z,38.20
2018-08-03T17:47:34.243Z,38.03
2018-08-03T17:50:03.281Z,37.78
2018-08-03T17:52:32.331Z,37.48
2018-08-03T17:55:01.487Z,37.15
2018-08-03T17:57:30.564Z,36.64
2018-08-03T17:59:59.526Z,35.97
2018-08-03T18:02:28.513Z,35.59
2018-08-03T18:04:57.539Z,35.34
2018-08-03T18:07:26.516Z,35.09
2018-08-03T18:09:55.953Z,34.75
2018-08-03T18:12:25.099Z,34.39
2018-08-03T18:14:54.141Z,34.07
2018-08-03T18:17:23.067Z,33.81
2018-08-03T18:19:52.043Z,33.50
2018-08-03T18:22:21.097Z,33.22
2018-08-03T18:24:50.210Z,32.98
2018-08-03T18:27:19.385Z,32.76
2018-08-03T18:29:48.596Z,32.41
2018-08-03T18:32:17.629Z,32.11
2018-08-03T18:34:46.661Z,31.79
2018-08-03T18:37:15.556Z,31.55
2018-08-03T18:39:44.493Z,31.21
2018-08-03T18:42:13.650Z,30.99
2018-08-03T18:44:42.737Z,30.76
2018-08-03T18:47:11.758Z,30.48
2018-08-03T18:49:40.732Z,30.24
2018-08-03T18:52:09.754Z,30.03
2018-08-03T18:54:38.774Z,29.87
2018-08-03T18:57:07.965Z,29.77
2018-08-03T18:59:36.967Z,29.75
2018-08-03T19:02:06.005Z,29.54
2018-08-03T19:04:35.000Z,29.34
2018-08-03T19:07:03.964Z,29.20
2018-08-03T19:09:32.908Z,28.88
2018-08-03T19:12:01.928Z,28.48
2018-08-03T19:14:30.966Z,28.06
2018-08-03T19:17:00.010Z,27.72
2018-08-03T19:19:29.165Z,27.65
2018-08-03T19:21:58.307Z,27.57
2018-08-03T19:24:27.185Z,27.43
2018-08-03T19:26:56.444Z,27.21
2018-08-03T19:29:25.428Z,26.97
2018-08-03T19:31:54.520Z,26.79
2018-08-03T19:34:23.794Z,26.67
2018-08-03T19:36:52.953Z,26.63
2018-08-03T19:39:21.907Z,26.55
2018-08-03T19:41:50.829Z,26.62
2018-08-03T19:44:19.784Z,26.64
2018-08-03T19:46:48.675Z,26.64
2018-08-03T19:49:17.667Z,26.53
2018-08-03T19:51:46.580Z,26.52
2018-08-03T19:54:15.584Z,26.46
2018-08-03T19:56:44.545Z,26.43
2018-08-03T19:59:13.573Z,26.48
2018-08-03T20:01:42.585Z,26.56
2018-08-03T20:04:11.614Z,26.60
2018-08-03T20:06:40.471Z,26.67
2018-08-03T20:09:11.848Z,26.63
2018-08-03T20:11:40.963Z,26.41
2018-08-03T20:14:09.917Z,26.28
2018-08-03T20:16:38.817Z,26.28
2018-08-03T20:19:07.909Z,26.34
2018-08-03T20:21:36.856Z,26.31
2018-08-03T20:24:05.910Z,26.30
2018-08-03T20:26:34.907Z,26.22
2018-08-03T20:29:03.870Z,26.09
2018-08-03T20:31:32.874Z,25.88
2018-08-03T20:34:01.884Z,25.83
2018-08-03T20:36:30.923Z,25.80
2018-08-03T20:38:59.948Z,25.83
2018-08-03T20:41:29.340Z,25.80
2018-08-03T20:43:58.403Z,25.79
2018-08-03T20:46:27.404Z,25.70
2018-08-03T20:48:56.439Z,25.63
2018-08-03T20:51:27.927Z,25.44
2018-08-03T20:53:56.953Z,25.26
2018-08-03T20:56:25.948Z,25.08
2018-08-03T20:58:55.008Z,24.90
2018-08-03T21:01:24.006Z,24.63
2018-08-03T21:03:52.896Z,24.37
2018-08-03T21:06:21.805Z,24.17
2018-08-03T21:08:50.791Z,24.13
2018-08-03T21:11:19.724Z,24.08
2018-08-03T21:13:48.909Z,23.96
2018-08-03T21:16:17.756Z,23.81
2018-08-03T21:18:46.890Z,23.67
2018-08-03T21:21:15.860Z,23.57
2018-08-03T21:23:44.766Z,23.47
2018-08-03T21:26:13.770Z,23.45
2018-08-03T21:28:42.764Z,23.40
2018-08-03T21:31:11.658Z,23.38
2018-08-03T21:33:40.627Z,23.26
2018-08-03T21:36:09.647Z,23.14
2018-08-03T21:38:38.519Z,23.01
2018-08-03T21:41:07.468Z,22.95
2018-08-03T21:43:36.396Z,22.84
2018-08-03T21:46:06.086Z,22.74
2018-08-03T21:48:35.067Z,22.62
2018-08-03T21:51:08.212Z,22.54
2018-08-03T21:53:37.068Z,22.45
2018-08-03T21:56:06.490Z,22.35
2018-08-03T21:58:35.540Z,22.24
2018-08-03T22:01:04.584Z,22.15
2018-08-03T22:03:33.568Z,22.09
2018-08-03T22:06:02.373Z,22.03
2018-08-03T22:08:31.417Z,21.97
2018-08-03T22:11:01.367Z,21.92
2018-08-03T22:13:37.622Z,21.92
2018-08-03T22:16:06.723Z,21.85
2018-08-03T22:18:35.788Z,21.79
2018-08-03T22:21:04.876Z,21.75
2018-08-03T22:23:33.761Z,21.73
2018-08-03T22:26:02.875Z,21.73
2018-08-03T22:28:31.880Z,21.69
2018-08-03T22:31:00.917Z,21.61
2018-08-03T22:33:30.029Z,21.58
2018-08-03T22:35:58.888Z,21.55
2018-08-03T22:38:27.720Z,21.49
2018-08-03T22:40:56.771Z,21.40
2018-08-03T22:43:25.611Z,21.33
2018-08-03T22:45:54.544Z,21.26
2018-08-03T22:48:23.535Z,21.21
2018-08-03T22:50:52.465Z,21.15
2018-08-03T22:53:21.480Z,21.07
2018-08-03T22:55:50.329Z,20.99
2018-08-03T22:58:19.335Z,20.95
2018-08-03T23:00:48.241Z,20.92
2018-08-03T23:03:17.217Z,20.89
2018-08-03T23:05:46.152Z,20.87
2018-08-03T23:08:15.210Z,20.82
2018-08-03T23:10:44.269Z,20.77
2018-08-03T23:13:13.257Z,20.68
2018-08-03T23:15:42.450Z,20.62
2018-08-03T23:18:11.405Z,20.55
2018-08-03T23:20:40.426Z,20.51
2018-08-03T23:23:09.282Z,20.55
2018-08-03T23:25:38.286Z,20.56
2018-08-03T23:28:07.185Z,20.59
2018-08-03T23:30:36.495Z,20.93
2018-08-03T23:33:05.453Z,21.21
2018-08-03T23:38:02.218Z,21.31
2018-08-03T23:40:31.302Z,21.21
2018-08-03T23:43:00.195Z,21.26
2018-08-03T23:45:29.073Z,21.56
2018-08-03T23:47:57.868Z,21.76
2018-08-03T23:50:26.941Z,21.86
2018-08-03T23:52:55.863Z,21.93
2018-08-03T23:55:24.745Z,21.79
2018-08-03T23:57:53.662Z,21.70
